Terminal Aerodrome Forecast
Issued by NWS Paducah, KY

Home | Current Version | Previous Version | Text Only | Print | Product List | Glossary Off
Versions: 1 2 3 4 5 6 7 8 9 10 11 12 13 14

000
FTUS43 KPAH 250520
TAFEVV
TAF
KEVV 250520Z 2506/2606 VRB02KT P6SM FEW050
      TEMPO 2508/2512 4SM BR
     FM251600 17010G15KT P6SM SCT250
     FM260000 17007KT P6SM BKN250=

USA.gov is the U.S. government's official web portal to all federal, state and local government web resources and services.